createdAt,value
2019-04-23T00:02:13.749Z,12.60
2019-04-23T00:04:36.748Z,12.60
2019-04-23T00:07:15.255Z,12.50
2019-04-23T00:09:38.988Z,12.60
2019-04-23T00:12:11.340Z,12.60
2019-04-23T00:14:45.998Z,12.60
2019-04-23T00:17:12.832Z,12.50
2019-04-23T00:19:30.985Z,13.20
2019-04-23T00:22:05.494Z,12.50
2019-04-23T00:29:53.669Z,12.50
2019-04-23T00:34:51.751Z,12.40
2019-04-23T00:37:23.803Z,12.40
2019-04-23T00:39:46.845Z,12.30
2019-04-23T00:42:15.469Z,12.30
2019-04-23T00:44:46.054Z,12.30
2019-04-23T00:47:16.375Z,12.30
2019-04-23T00:49:30.964Z,12.20
2019-04-23T00:52:15.147Z,12.20
2019-04-23T00:54:39.713Z,12.20
2019-04-23T00:57:07.731Z,12.20
2019-04-23T00:59:40.446Z,12.20
2019-04-23T01:02:01.116Z,12.20
2019-04-23T01:04:31.658Z,12.30
2019-04-23T01:09:44.345Z,12.20
2019-04-23T01:12:06.408Z,12.20
2019-04-23T01:14:36.137Z,12.20
2019-04-23T01:17:05.973Z,12.20
2019-04-23T01:19:46.715Z,12.10
2019-04-23T01:21:47.770Z,12.20
2019-04-23T01:24:38.491Z,12.20
2019-04-23T01:32:32.074Z,12.10
2019-04-23T01:35:12.760Z,12.00
2019-04-23T01:37:30.376Z,12.00
2019-04-23T01:40:00.660Z,11.90
2019-04-23T01:42:37.412Z,11.90
2019-04-23T01:45:05.328Z,11.90
2019-04-23T01:47:33.688Z,11.90
2019-04-23T01:50:06.318Z,11.90
2019-04-23T01:52:31.916Z,12.00
2019-04-23T01:54:52.251Z,12.80
2019-04-23T01:57:23.332Z,11.90
2019-04-23T01:59:58.455Z,11.80
2019-04-23T02:02:28.762Z,11.70
2019-04-23T02:04:52.633Z,11.60
2019-04-23T02:07:24.416Z,11.70
2019-04-23T02:09:48.598Z,11.70
2019-04-23T02:12:18.080Z,11.60
2019-04-23T02:14:49.953Z,11.60
2019-04-23T02:17:18.793Z,11.60
2019-04-23T02:19:48.732Z,11.60
2019-04-23T02:22:25.067Z,11.50
2019-04-23T02:24:55.920Z,11.40
2019-04-23T02:27:24.925Z,11.30
2019-04-23T02:32:31.439Z,11.30
2019-04-23T02:34:57.889Z,11.40
2019-04-23T02:40:01.971Z,11.30
2019-04-23T02:42:40.942Z,11.30
2019-04-23T02:44:48.960Z,11.20
2019-04-23T02:47:21.843Z,11.30
2019-04-23T02:52:16.016Z,11.20
2019-04-23T02:57:31.245Z,11.30
2019-04-23T02:59:53.845Z,11.30
2019-04-23T03:02:32.817Z,11.40
2019-04-23T03:04:57.048Z,11.40
2019-04-23T03:07:37.579Z,11.40
2019-04-23T03:09:44.425Z,11.30
2019-04-23T03:12:18.537Z,11.40
2019-04-23T03:14:55.759Z,11.50
2019-04-23T03:17:15.087Z,11.40
2019-04-23T03:19:59.387Z,11.40
2019-04-23T03:22:37.771Z,11.30
2019-04-23T03:25:23.465Z,11.30
2019-04-23T03:27:40.895Z,11.30
2019-04-23T03:33:31.057Z,11.40
2019-04-23T03:36:14.029Z,11.30
2019-04-23T03:40:11.600Z,11.30
2019-04-23T03:42:57.761Z,11.30
2019-04-23T03:45:15.989Z,11.30
2019-04-23T03:55:30.267Z,11.20
2019-04-23T03:57:32.818Z,11.20
2019-04-23T04:05:08.120Z,11.20
2019-04-23T04:07:40.337Z,11.10
2019-04-23T04:09:59.290Z,11.10
2019-04-23T04:17:35.243Z,11.10
2019-04-23T04:19:56.410Z,11.10
2019-04-23T04:22:37.481Z,11.10
2019-04-23T04:25:02.814Z,11.10
2019-04-23T04:27:24.587Z,11.10
2019-04-23T04:29:54.895Z,11.10
2019-04-23T04:32:36.490Z,11.10
2019-04-23T04:39:59.284Z,11.20
2019-04-23T04:49:51.386Z,11.50
2019-04-23T04:54:26.276Z,11.60
2019-04-23T04:59:45.798Z,11.70
2019-04-23T05:02:16.207Z,11.70
2019-04-23T05:04:59.850Z,11.80
2019-04-23T05:09:56.397Z,11.90
2019-04-23T05:14:43.842Z,12.00
2019-04-23T05:17:13.486Z,12.10
2019-04-23T05:26:58.002Z,12.30
2019-04-23T05:29:20.054Z,12.30
2019-04-23T05:31:53.405Z,12.40
2019-04-23T05:34:23.862Z,12.50
2019-04-23T05:37:00.296Z,12.60
2019-04-23T05:39:31.351Z,12.80
2019-04-23T05:42:04.443Z,13.00
2019-04-23T05:44:34.984Z,12.90
2019-04-23T05:46:52.307Z,12.80
2019-04-23T05:49:22.618Z,12.90
2019-04-23T05:52:02.143Z,12.90
2019-04-23T05:54:22.702Z,13.00
2019-04-23T05:56:46.779Z,13.00
2019-04-23T06:01:54.037Z,13.20
2019-04-23T06:04:19.510Z,13.30
2019-04-23T06:09:25.143Z,13.60
2019-04-23T06:11:56.694Z,13.70
2019-04-23T06:14:16.933Z,13.70
2019-04-23T06:16:41.622Z,13.60
2019-04-23T06:19:09.780Z,13.90
2019-04-23T06:21:44.319Z,14.00
2019-04-23T06:24:14.863Z,14.20
2019-04-23T06:29:05.418Z,14.40
2019-04-23T06:31:40.758Z,14.40
2019-04-23T06:34:04.241Z,14.80
2019-04-23T06:36:32.709Z,14.50
2019-04-23T06:41:31.256Z,14.60
2019-04-23T06:44:11.566Z,14.90
2019-04-23T06:46:28.983Z,14.90
2019-04-23T06:48:57.162Z,14.90
2019-04-23T06:51:27.181Z,15.50
2019-04-23T06:53:55.120Z,15.10
2019-04-23T06:56:26.911Z,15.20
2019-04-23T06:58:56.542Z,14.90
2019-04-23T07:01:25.178Z,15.40
2019-04-23T07:03:52.261Z,15.60
2019-04-23T07:06:26.619Z,15.60
2019-04-23T07:09:05.202Z,14.70
2019-04-23T07:11:23.615Z,15.80
2019-04-23T07:16:29.865Z,16.30
2019-04-23T07:18:41.246Z,16.20
2019-04-23T07:23:52.664Z,16.20
2019-04-23T07:26:19.000Z,16.30
2019-04-23T07:28:48.552Z,17.10
2019-04-23T07:31:16.645Z,16.90
2019-04-23T07:33:44.643Z,17.00
2019-04-23T07:36:13.815Z,17.20
2019-04-23T07:41:52.571Z,17.10
2019-04-23T07:44:24.254Z,18.50
2019-04-23T07:47:11.688Z,18.30
2019-04-23T07:49:26.544Z,18.70
2019-04-23T07:52:00.845Z,18.80
2019-04-23T07:54:32.543Z,18.30
2019-04-23T07:56:53.319Z,18.30
2019-04-23T07:59:25.140Z,17.70
2019-04-23T08:01:51.206Z,17.20
2019-04-23T08:04:18.331Z,17.10
2019-04-23T08:06:46.185Z,17.20
2019-04-23T08:09:17.427Z,17.90
2019-04-23T08:11:45.793Z,17.30
2019-04-23T08:14:08.552Z,17.70
2019-04-23T08:16:36.727Z,17.80
2019-04-23T08:19:05.763Z,18.20
2019-04-23T08:21:36.451Z,18.50
2019-04-23T08:24:38.558Z,18.10
2019-04-23T08:27:18.585Z,18.60
2019-04-23T08:29:50.927Z,18.30
2019-04-23T08:37:27.336Z,19.70
2019-04-23T08:39:47.028Z,19.90
2019-04-23T08:42:33.424Z,20.00
2019-04-23T08:45:27.789Z,19.90
2019-04-23T08:48:07.545Z,20.20
2019-04-23T08:53:18.294Z,20.60
2019-04-23T08:55:46.396Z,21.10
2019-04-23T08:57:58.071Z,21.30
2019-04-23T09:00:40.393Z,21.70
2019-04-23T09:03:04.543Z,22.40
2019-04-23T09:08:07.163Z,21.00
2019-04-23T09:10:38.958Z,21.80
2019-04-23T09:13:28.181Z,22.10
2019-04-23T09:15:41.625Z,22.90
2019-04-23T09:18:04.231Z,22.70
2019-04-23T09:20:27.788Z,22.90
2019-04-23T09:22:55.022Z,22.80
2019-04-23T09:25:37.344Z,23.20
2019-04-23T09:27:59.426Z,23.90
2019-04-23T09:30:26.658Z,24.20
2019-04-23T09:33:09.046Z,23.80
2019-04-23T09:35:48.394Z,24.80
2019-04-23T09:39:00.496Z,23.60
2019-04-23T09:41:31.337Z,23.70
2019-04-23T09:44:41.081Z,23.70
2019-04-23T09:47:00.856Z,24.90
2019-04-23T09:49:31.088Z,25.10
2019-04-23T09:52:00.795Z,24.20
2019-04-23T09:54:40.237Z,25.00
2019-04-23T09:56:47.421Z,25.20
2019-04-23T09:59:23.563Z,24.60
2019-04-23T10:01:35.718Z,25.20
2019-04-23T10:04:00.106Z,23.90
2019-04-23T10:06:25.012Z,23.70
2019-04-23T10:08:53.590Z,24.50
2019-04-23T10:11:19.525Z,24.10
2019-04-23T10:13:45.862Z,23.80
2019-04-23T10:16:17.088Z,24.00
2019-04-23T10:18:41.606Z,25.30
2019-04-23T10:21:09.312Z,25.60
2019-04-23T10:23:37.010Z,25.10
2019-04-23T10:26:06.113Z,24.80
2019-04-23T10:28:47.670Z,25.20
2019-04-23T10:31:14.795Z,26.10
2019-04-23T10:33:42.198Z,25.70
2019-04-23T10:36:13.006Z,26.30
2019-04-23T10:38:41.565Z,25.80
2019-04-23T10:41:06.802Z,26.10
2019-04-23T10:43:38.235Z,25.50
2019-04-23T10:46:44.204Z,25.50
2019-04-23T10:49:50.396Z,25.80
2019-04-23T10:52:07.095Z,26.20
2019-04-23T10:57:17.034Z,24.90
2019-04-23T10:59:38.953Z,25.10
2019-04-23T11:02:25.420Z,24.70
2019-04-23T11:04:47.541Z,23.90
2019-04-23T11:09:55.838Z,24.50
2019-04-23T11:12:14.587Z,24.60
2019-04-23T11:17:03.639Z,23.90
2019-04-23T11:20:01.269Z,24.70
2019-04-23T11:22:20.939Z,24.70
2019-04-23T11:25:26.352Z,26.10
2019-04-23T11:27:09.681Z,26.60
2019-04-23T11:32:06.778Z,26.90
2019-04-23T11:34:48.042Z,27.40
2019-04-23T11:39:31.069Z,26.80
2019-04-23T11:42:28.080Z,27.80
2019-04-23T11:44:36.478Z,26.90
2019-04-23T11:47:04.642Z,26.90
2019-04-23T11:52:05.678Z,27.00
2019-04-23T11:54:27.737Z,27.50
2019-04-23T11:57:16.523Z,27.00
2019-04-23T11:59:31.920Z,26.90
2019-04-23T12:02:13.599Z,28.00
2019-04-23T12:05:00.862Z,27.60
2019-04-23T12:07:32.558Z,27.20
2019-04-23T12:10:16.369Z,27.30
2019-04-23T12:12:41.389Z,28.50
2019-04-23T12:15:07.405Z,27.30
2019-04-23T12:17:47.383Z,27.80
2019-04-23T12:20:07.989Z,26.90
2019-04-23T12:22:34.311Z,27.40
2019-04-23T12:27:30.733Z,27.20
2019-04-23T12:29:52.292Z,27.70
2019-04-23T12:32:43.068Z,27.60
2019-04-23T12:37:36.505Z,27.20
2019-04-23T12:40:12.905Z,27.20
2019-04-23T12:42:50.411Z,26.70
2019-04-23T12:45:05.244Z,26.40
2019-04-23T12:47:51.929Z,26.50
2019-04-23T12:52:34.194Z,25.50
2019-04-23T12:55:08.519Z,25.00
2019-04-23T12:57:31.039Z,25.40
2019-04-23T12:59:50.304Z,24.60
2019-04-23T13:02:32.755Z,24.30
2019-04-23T13:04:51.822Z,24.30
2019-04-23T13:07:30.336Z,24.20
2019-04-23T13:12:30.724Z,24.00
2019-04-23T13:14:56.004Z,23.80
2019-04-23T13:17:31.242Z,23.20
2019-04-23T13:19:58.227Z,22.80
2019-04-23T13:22:25.583Z,23.00
2019-04-23T13:25:10.239Z,22.60
2019-04-23T13:27:53.774Z,22.90
2019-04-23T13:30:22.879Z,22.60
2019-04-23T13:35:28.019Z,22.50
2019-04-23T13:37:59.377Z,22.60
2019-04-23T13:40:19.653Z,22.40
2019-04-23T13:42:45.351Z,22.50
2019-04-23T13:45:18.604Z,22.10
2019-04-23T13:47:46.919Z,22.20
2019-04-23T13:50:18.882Z,21.60
2019-04-23T13:57:59.203Z,21.80
2019-04-23T14:00:25.063Z,21.70
2019-04-23T14:02:36.883Z,21.70
2019-04-23T14:07:54.107Z,21.40
2019-04-23T14:10:31.184Z,21.40
2019-04-23T14:13:08.450Z,21.50
2019-04-23T14:15:35.670Z,21.60
2019-04-23T14:18:17.419Z,21.60
2019-04-23T14:20:21.452Z,21.60
2019-04-23T14:25:16.617Z,21.90
2019-04-23T14:28:00.169Z,22.00
2019-04-23T14:30:21.912Z,22.10
2019-04-23T14:32:45.736Z,21.90
2019-04-23T14:38:01.966Z,21.90
2019-04-23T14:40:22.118Z,21.80
2019-04-23T14:45:30.778Z,21.70
2019-04-23T14:47:59.111Z,21.80
2019-04-23T14:52:58.881Z,21.50
2019-04-23T14:57:55.814Z,21.30
2019-04-23T15:00:17.584Z,21.30
2019-04-23T15:02:51.877Z,21.20
2019-04-23T15:05:17.460Z,21.40
2019-04-23T15:10:18.438Z,21.30
2019-04-23T15:12:36.626Z,21.30
2019-04-23T15:15:14.381Z,21.20
2019-04-23T15:17:34.149Z,21.20
2019-04-23T15:20:12.076Z,21.30
2019-04-23T15:22:50.626Z,21.40
2019-04-23T15:25:21.505Z,21.60
2019-04-23T15:29:58.313Z,21.50
2019-04-23T15:32:44.623Z,21.50
2019-04-23T15:35:18.117Z,21.50
2019-04-23T15:38:02.183Z,21.40
2019-04-23T15:40:11.147Z,21.40
2019-04-23T15:42:32.845Z,21.70
2019-04-23T15:45:01.281Z,21.60
2019-04-23T15:47:35.986Z,21.10
2019-04-23T15:52:40.207Z,21.40
2019-04-23T15:57:44.996Z,21.20
2019-04-23T15:59:55.944Z,21.20
2019-04-23T16:01:56.161Z,21.10
2019-04-23T16:04:24.154Z,21.00
2019-04-23T16:06:51.891Z,21.00
2019-04-23T16:09:52.838Z,21.10
2019-04-23T16:12:11.665Z,21.00
2019-04-23T16:15:07.728Z,21.00
2019-04-23T16:17:32.673Z,20.90
2019-04-23T16:22:52.765Z,20.70
2019-04-23T16:27:44.256Z,20.70
2019-04-23T16:33:06.948Z,20.50
2019-04-23T16:38:10.569Z,20.50
2019-04-23T16:40:33.150Z,20.50
2019-04-23T16:43:03.786Z,20.40
2019-04-23T16:45:29.380Z,20.30
2019-04-23T16:48:00.023Z,20.30
2019-04-23T16:50:29.229Z,20.00
2019-04-23T16:52:51.924Z,20.00
2019-04-23T16:55:24.209Z,20.10
2019-04-23T16:57:54.140Z,20.10
2019-04-23T17:02:54.978Z,19.90
2019-04-23T17:05:19.972Z,19.90
2019-04-23T17:07:46.359Z,19.80
2019-04-23T17:10:31.307Z,19.70
2019-04-23T17:12:47.411Z,19.60
2019-04-23T17:15:16.684Z,19.50
2019-04-23T17:17:38.051Z,19.40
2019-04-23T17:22:42.528Z,19.30
2019-04-23T17:25:15.288Z,19.30
2019-04-23T17:27:41.514Z,19.20
2019-04-23T17:30:06.459Z,19.20
2019-04-23T17:32:46.969Z,19.10
2019-04-23T17:35:23.918Z,19.10
2019-04-23T17:37:48.470Z,19.00
2019-04-23T17:43:06.350Z,18.90
2019-04-23T17:48:18.817Z,18.90
2019-04-23T17:53:22.321Z,18.80
2019-04-23T17:56:01.214Z,18.70
2019-04-23T17:58:23.421Z,18.70
2019-04-23T18:03:14.759Z,18.60
2019-04-23T18:05:52.328Z,18.50
2019-04-23T18:08:17.866Z,18.50
2019-04-23T18:13:22.845Z,18.40
2019-04-23T18:15:58.336Z,18.30
2019-04-23T18:18:26.832Z,18.20
2019-04-23T18:21:33.987Z,18.00
2019-04-23T18:24:16.841Z,18.00
2019-04-23T18:26:46.406Z,18.00
2019-04-23T18:29:27.686Z,17.90
2019-04-23T18:31:57.402Z,17.80
2019-04-23T18:34:27.677Z,17.80
2019-04-23T18:36:53.763Z,17.80
2019-04-23T18:39:22.189Z,17.70
2019-04-23T18:42:03.985Z,17.40
2019-04-23T18:44:30.543Z,17.60
2019-04-23T18:46:54.262Z,17.60
2019-04-23T18:49:33.139Z,17.50
2019-04-23T18:51:52.089Z,17.40
2019-04-23T18:54:21.889Z,17.30
2019-04-23T18:57:09.335Z,17.20
2019-04-23T18:59:23.255Z,17.20
2019-04-23T19:02:20.049Z,17.10
2019-04-23T19:07:32.412Z,16.90
2019-04-23T19:13:02.142Z,16.80
2019-04-23T19:15:30.054Z,16.70
2019-04-23T19:17:53.373Z,16.70
2019-04-23T19:20:38.068Z,16.70
2019-04-23T19:22:58.330Z,16.50
2019-04-23T19:25:23.094Z,16.40
2019-04-23T19:27:57.370Z,16.40
2019-04-23T19:30:39.733Z,16.40
2019-04-23T19:33:14.425Z,16.80
2019-04-23T19:36:01.455Z,16.20
2019-04-23T19:40:44.768Z,16.10
2019-04-23T19:43:01.371Z,16.00
2019-04-23T19:45:40.663Z,16.00
2019-04-23T19:48:30.311Z,15.90
2019-04-23T19:51:17.263Z,15.80
2019-04-23T19:56:16.784Z,15.70
2019-04-23T19:58:44.907Z,15.70
2019-04-23T20:01:18.261Z,15.70
2019-04-23T20:04:26.330Z,15.70
2019-04-23T20:06:14.488Z,15.70
2019-04-23T20:09:01.984Z,15.70
2019-04-23T20:11:07.749Z,15.60
2019-04-23T20:13:45.371Z,15.70
2019-04-23T20:18:46.041Z,15.50
2019-04-23T20:21:00.649Z,15.40
2019-04-23T20:29:02.630Z,15.30
2019-04-23T20:32:47.782Z,15.30
2019-04-23T20:34:24.727Z,15.20
2019-04-23T20:36:48.127Z,15.20
2019-04-23T20:39:16.446Z,15.10
2019-04-23T20:42:07.573Z,15.10
2019-04-23T20:44:34.693Z,15.20
2019-04-23T20:47:04.815Z,15.10
2019-04-23T20:49:28.266Z,15.00
2019-04-23T20:52:00.165Z,14.90
2019-04-23T20:54:18.573Z,14.80
2019-04-23T20:57:11.899Z,14.90
2019-04-23T20:59:53.177Z,14.80
2019-04-23T21:02:33.535Z,14.80
2019-04-23T21:05:00.918Z,14.70
2019-04-23T21:07:28.265Z,14.70
2019-04-23T21:10:00.914Z,14.60
2019-04-23T21:12:27.749Z,14.60
2019-04-23T21:14:59.669Z,14.60
2019-04-23T21:17:15.378Z,14.70
2019-04-23T21:19:52.482Z,14.60
2019-04-23T21:22:14.044Z,14.60
2019-04-23T21:24:46.227Z,14.50
2019-04-23T21:27:32.597Z,14.50
2019-04-23T21:30:00.581Z,14.70
2019-04-23T21:32:24.883Z,14.50
2019-04-23T21:34:55.684Z,14.60
2019-04-23T21:37:32.604Z,14.40
2019-04-23T21:40:45.062Z,14.40
2019-04-23T21:45:35.013Z,14.40
2019-04-23T21:48:00.651Z,14.30
2019-04-23T21:50:27.678Z,14.30
2019-04-23T21:52:54.486Z,14.30
2019-04-23T21:55:20.434Z,14.20
2019-04-23T21:58:01.369Z,14.20
2019-04-23T22:00:15.852Z,14.20
2019-04-23T22:02:58.932Z,14.20
2019-04-23T22:07:52.976Z,14.30
2019-04-23T22:10:19.595Z,14.20
2019-04-23T22:12:57.659Z,14.20
2019-04-23T22:15:12.600Z,14.10
2019-04-23T22:17:44.640Z,14.00
2019-04-23T22:22:53.009Z,14.00
2019-04-23T22:25:04.503Z,14.00
2019-04-23T22:27:41.078Z,14.00
2019-04-23T22:30:03.658Z,14.00
2019-04-23T22:32:47.394Z,13.90
2019-04-23T22:37:33.709Z,13.80
2019-04-23T22:39:58.904Z,13.80
2019-04-23T22:42:54.541Z,13.80
2019-04-23T22:45:05.335Z,13.70
2019-04-23T22:47:33.832Z,13.80
2019-04-23T22:50:00.501Z,13.70
2019-04-23T22:55:02.262Z,13.60
2019-04-23T22:57:41.387Z,13.50
2019-04-23T23:00:08.398Z,13.60
2019-04-23T23:02:46.407Z,13.50
2019-04-23T23:05:14.403Z,13.40
2019-04-23T23:07:40.676Z,13.50
2019-04-23T23:10:08.431Z,13.40
2019-04-23T23:12:43.697Z,13.40
2019-04-23T23:15:01.083Z,13.30
2019-04-23T23:17:30.798Z,13.40
2019-04-23T23:20:05.657Z,13.30
2019-04-23T23:22:27.694Z,13.20
2019-04-23T23:25:04.731Z,13.30
2019-04-23T23:27:23.452Z,13.20
2019-04-23T23:30:00.336Z,13.10
2019-04-23T23:32:26.889Z,13.10
2019-04-23T23:35:07.909Z,12.90
2019-04-23T23:37:19.303Z,12.90
2019-04-23T23:40:07.275Z,12.90
2019-04-23T23:42:16.575Z,12.80
2019-04-23T23:47:15.064Z,12.70
2019-04-23T23:49:48.969Z,12.60
2019-04-23T23:52:12.966Z,12.50
2019-04-23T23:54:39.348Z,12.50
2019-04-23T23:57:12.474Z,12.50
